createdAt,value
2019-01-08T00:01:54.240Z,78.45
2019-01-08T00:04:25.103Z,78.43
2019-01-08T00:06:57.100Z,78.20
2019-01-08T00:09:27.833Z,77.97
2019-01-08T00:11:59.898Z,77.74
2019-01-08T00:14:31.949Z,77.20
2019-01-08T00:17:04.142Z,77.73
2019-01-08T00:19:36.285Z,77.83
2019-01-08T00:22:07.026Z,78.12
2019-01-08T00:24:39.074Z,77.97
2019-01-08T00:27:11.253Z,77.99
2019-01-08T00:29:41.858Z,77.90
2019-01-08T00:32:13.944Z,78.17
2019-01-08T00:34:45.949Z,78.42
2019-01-08T00:37:18.136Z,78.87
2019-01-08T00:39:50.340Z,78.87
2019-01-08T00:42:20.858Z,79.08
2019-01-08T00:44:52.884Z,79.32
2019-01-08T00:47:24.952Z,79.37
2019-01-08T00:49:56.949Z,79.36
2019-01-08T00:52:29.105Z,79.76
2019-01-08T00:54:59.870Z,79.98
2019-01-08T00:57:32.035Z,79.74
2019-01-08T01:00:04.267Z,80.04
2019-01-08T01:02:34.992Z,80.28
2019-01-08T01:05:07.128Z,80.54
2019-01-08T01:07:37.857Z,80.79
2019-01-08T01:10:09.945Z,80.95
2019-01-08T01:12:41.926Z,80.48
2019-01-08T01:15:14.061Z,81.16
2019-01-08T01:17:46.130Z,80.41
2019-01-08T01:20:18.264Z,80.71
2019-01-08T01:22:48.867Z,80.33
2019-01-08T01:25:20.929Z,80.62
2019-01-08T01:27:53.875Z,80.55
2019-01-08T01:30:25.950Z,81.08
2019-01-08T01:32:57.929Z,80.78
2019-01-08T01:35:29.944Z,80.51
2019-01-08T01:38:01.957Z,80.95
2019-01-08T01:40:34.250Z,80.89
2019-01-08T01:43:06.279Z,80.84
2019-01-08T01:45:36.871Z,80.67
2019-01-08T01:48:09.087Z,80.60
2019-01-08T01:50:41.121Z,80.71
2019-01-08T01:53:13.259Z,80.49
2019-01-08T01:55:44.328Z,80.43
2019-01-08T01:58:14.877Z,80.62
2019-01-08T02:00:47.620Z,80.62
2019-01-08T02:03:19.785Z,80.59
2019-01-08T02:05:52.177Z,80.15
2019-01-08T02:08:24.128Z,80.18
2019-01-08T02:10:55.125Z,79.83
2019-01-08T02:13:27.086Z,80.03
2019-01-08T02:16:00.522Z,79.95
2019-01-08T02:18:32.914Z,80.29
2019-01-08T02:21:04.953Z,80.31
2019-01-08T02:23:36.980Z,80.15
2019-01-08T02:26:08.949Z,79.78
2019-01-08T02:28:40.954Z,79.50
2019-01-08T02:31:12.957Z,79.16
2019-01-08T02:33:44.949Z,79.14
2019-01-08T02:36:16.941Z,78.92
2019-01-08T02:38:49.107Z,78.53
2019-01-08T02:41:21.397Z,78.84
2019-01-08T02:43:53.748Z,78.69
2019-01-08T02:46:25.975Z,78.87
2019-01-08T02:48:58.263Z,79.19
2019-01-08T02:51:28.893Z,79.76
2019-01-08T02:54:00.956Z,79.72
2019-01-08T02:56:32.964Z,79.85
2019-01-08T02:59:05.091Z,79.76
2019-01-08T03:01:37.291Z,79.66
2019-01-08T03:04:07.663Z,80.03
2019-01-08T03:06:39.897Z,79.77
2019-01-08T03:09:11.965Z,79.86
2019-01-08T03:11:43.955Z,79.95
2019-01-08T03:14:15.954Z,79.76
2019-01-08T03:16:48.666Z,79.56
2019-01-08T03:19:20.672Z,79.48
2019-01-08T03:21:52.682Z,79.07
2019-01-08T03:24:24.764Z,79.03
2019-01-08T03:26:56.888Z,79.22
2019-01-08T03:29:33.480Z,78.74
2019-01-08T03:32:02.793Z,78.91
2019-01-08T03:34:35.291Z,78.76
2019-01-08T03:37:06.052Z,78.60
2019-01-08T03:39:38.272Z,78.40
2019-01-08T03:42:08.671Z,77.78
2019-01-08T03:44:40.674Z,77.78
2019-01-08T03:47:12.741Z,77.69
2019-01-08T03:49:44.778Z,77.37
2019-01-08T03:52:16.906Z,77.54
2019-01-08T03:54:48.949Z,77.34
2019-01-08T03:57:20.943Z,77.04
2019-01-08T03:59:52.950Z,76.89
2019-01-08T04:02:24.954Z,76.56
2019-01-08T04:04:56.952Z,76.79
2019-01-08T04:07:28.941Z,76.42
2019-01-08T04:10:00.986Z,76.19
2019-01-08T04:12:32.962Z,75.95
2019-01-08T04:15:06.480Z,75.72
2019-01-08T04:17:38.639Z,75.69
2019-01-08T04:20:10.691Z,75.69
2019-01-08T04:22:42.790Z,75.41
2019-01-08T04:25:14.945Z,75.29
2019-01-08T04:27:46.959Z,74.80
2019-01-08T04:30:18.956Z,74.83
2019-01-08T04:32:50.936Z,75.15
2019-01-08T04:35:22.961Z,75.14
2019-01-08T04:37:55.132Z,75.16
2019-01-08T04:40:27.121Z,75.03
2019-01-08T04:42:59.069Z,75.04
2019-01-08T04:45:31.097Z,75.15
2019-01-08T04:48:02.956Z,75.12
2019-01-08T04:50:34.955Z,75.01
2019-01-08T04:53:07.006Z,74.68
2019-01-08T04:55:39.005Z,74.55
2019-01-08T04:58:11.121Z,74.55
2019-01-08T05:00:41.806Z,74.87
2019-01-08T05:03:13.923Z,75.02
2019-01-08T05:05:45.949Z,74.86
2019-01-08T05:08:17.949Z,74.84
2019-01-08T05:10:49.948Z,74.54
2019-01-08T05:13:21.944Z,74.72
2019-01-08T05:15:53.943Z,75.34
2019-01-08T05:18:26.116Z,75.77
2019-01-08T05:20:58.289Z,75.97
2019-01-08T05:23:30.300Z,76.01
2019-01-08T05:26:00.878Z,76.13
2019-01-08T05:28:33.288Z,76.04
2019-01-08T05:31:03.672Z,76.03
2019-01-08T05:33:35.795Z,76.20
2019-01-08T05:36:07.932Z,76.09
2019-01-08T05:38:39.969Z,76.22
2019-01-08T05:41:12.143Z,76.29
2019-01-08T05:43:44.286Z,76.22
2019-01-08T05:46:15.054Z,76.23
2019-01-08T05:48:47.309Z,76.36
2019-01-08T05:51:17.707Z,76.52
2019-01-08T05:53:49.772Z,76.46
2019-01-08T05:56:21.895Z,76.28
2019-01-08T05:58:53.956Z,76.19
2019-01-08T06:01:25.954Z,76.13
2019-01-08T06:03:57.947Z,76.49
2019-01-08T06:06:30.128Z,76.52
2019-01-08T06:09:00.820Z,76.21
2019-01-08T06:11:32.886Z,76.21
2019-01-08T06:14:04.955Z,76.13
2019-01-08T06:16:36.963Z,76.08
2019-01-08T06:19:11.918Z,76.13
2019-01-08T06:21:44.317Z,76.15
2019-01-08T06:24:15.093Z,76.20
2019-01-08T06:26:47.569Z,76.31
2019-01-08T06:29:19.746Z,76.28
2019-01-08T06:31:52.291Z,76.46
2019-01-08T06:34:23.252Z,76.58
2019-01-08T06:36:55.292Z,76.40
2019-01-08T06:39:26.065Z,76.58
2019-01-08T06:41:58.648Z,76.79
2019-01-08T06:44:31.339Z,76.76
2019-01-08T06:47:02.061Z,76.60
2019-01-08T06:49:35.816Z,76.48
2019-01-08T06:52:08.032Z,76.57
2019-01-08T06:54:41.673Z,76.36
2019-01-08T06:57:14.088Z,76.11
2019-01-08T06:59:46.727Z,76.02
2019-01-08T07:02:19.151Z,76.08
2019-01-08T07:04:50.082Z,76.01
2019-01-08T07:07:22.670Z,75.81
2019-01-08T07:09:55.320Z,75.44
2019-01-08T07:12:27.330Z,75.52
2019-01-08T07:15:01.718Z,75.32
2019-01-08T07:17:40.289Z,74.93
2019-01-08T07:20:11.281Z,74.91
2019-01-08T07:22:43.643Z,74.79
2019-01-08T07:25:16.285Z,74.43
2019-01-08T07:27:47.287Z,74.43
2019-01-08T07:30:18.427Z,74.31
2019-01-08T07:32:50.561Z,74.02
2019-01-08T07:35:22.714Z,73.53
2019-01-08T07:37:55.263Z,73.53
2019-01-08T07:40:26.347Z,73.11
2019-01-08T07:42:58.289Z,72.98
2019-01-08T07:45:33.567Z,72.80
2019-01-08T07:48:05.905Z,72.82
2019-01-08T07:50:38.269Z,72.70
2019-01-08T07:53:09.008Z,72.40
2019-01-08T07:55:44.296Z,72.21
2019-01-08T07:58:15.453Z,72.19
2019-01-08T08:00:50.114Z,71.62
2019-01-08T08:03:21.882Z,71.38
2019-01-08T08:05:54.282Z,71.38
2019-01-08T08:08:25.177Z,70.68
2019-01-08T08:10:56.109Z,70.68
2019-01-08T08:13:27.100Z,70.59
2019-01-08T08:15:59.321Z,70.37
2019-01-08T08:18:35.663Z,70.25
2019-01-08T08:21:07.928Z,70.04
2019-01-08T08:23:40.276Z,69.90
2019-01-08T08:26:11.283Z,69.58
2019-01-08T08:28:42.324Z,69.77
2019-01-08T08:45:50.438Z,71.04
2019-01-08T08:48:22.687Z,72.03
2019-01-08T08:50:54.950Z,72.03
2019-01-08T08:53:27.271Z,72.50
2019-01-08T08:55:58.020Z,72.50
2019-01-08T08:58:30.277Z,75.24
2019-01-08T09:01:06.826Z,75.66
2019-01-08T09:03:37.453Z,76.02
2019-01-08T09:06:09.737Z,76.44
2019-01-08T09:08:42.107Z,76.44
2019-01-08T09:11:13.275Z,76.10
2019-01-08T09:13:45.641Z,75.75
2019-01-08T09:16:18.275Z,76.15
2019-01-08T09:18:49.285Z,76.23
2019-01-08T09:21:21.307Z,76.61
2019-01-08T09:23:53.316Z,76.48
2019-01-08T09:26:25.314Z,76.73
2019-01-08T09:28:56.272Z,77.49
2019-01-08T09:31:27.062Z,77.97
2019-01-08T09:33:59.287Z,78.44
2019-01-08T09:36:30.695Z,78.40
2019-01-08T09:39:05.272Z,78.32
2019-01-08T09:41:36.093Z,78.77
2019-01-08T09:44:08.274Z,78.77
2019-01-08T09:46:40.564Z,78.73
2019-01-08T09:49:15.356Z,78.37
2019-01-08T09:51:47.289Z,78.18
2019-01-08T09:54:19.891Z,78.31
2019-01-08T09:56:52.280Z,78.42
2019-01-08T09:59:22.869Z,78.58
2019-01-08T10:01:56.286Z,78.48
2019-01-08T10:04:27.454Z,78.83
2019-01-08T10:07:00.258Z,79.10
2019-01-08T10:09:33.330Z,79.21
2019-01-08T10:12:05.950Z,78.70
2019-01-08T10:14:38.979Z,78.28
2019-01-08T10:17:11.300Z,78.75
2019-01-08T10:19:42.271Z,78.71
2019-01-08T10:22:13.240Z,78.87
2019-01-08T10:24:44.096Z,78.78
2019-01-08T10:27:16.401Z,78.89
2019-01-08T10:29:49.111Z,78.88
2019-01-08T10:32:21.302Z,79.36
2019-01-08T10:34:53.330Z,79.36
2019-01-08T10:37:56.671Z,79.79
2019-01-08T10:40:28.934Z,79.79
2019-01-08T10:43:01.277Z,80.01
2019-01-08T10:45:34.502Z,80.28
2019-01-08T10:48:08.287Z,80.41
2019-01-08T10:50:40.629Z,80.06
2019-01-08T10:53:12.948Z,79.41
2019-01-08T10:55:45.274Z,79.06
2019-01-08T10:58:16.278Z,79.40
2019-01-08T11:00:48.506Z,78.87
2019-01-08T11:03:20.839Z,78.87
2019-01-08T11:05:53.360Z,78.41
2019-01-08T11:08:26.934Z,78.43
2019-01-08T11:10:59.940Z,78.17
2019-01-08T11:13:32.665Z,78.46
2019-01-08T11:16:05.282Z,78.05
2019-01-08T11:18:38.562Z,77.97
2019-01-08T11:21:10.856Z,77.67
2019-01-08T11:23:43.311Z,77.49
2019-01-08T11:26:15.601Z,77.48
2019-01-08T11:28:47.989Z,77.48
2019-01-08T11:31:20.081Z,77.69
2019-01-08T11:33:52.327Z,77.41
2019-01-08T11:36:24.339Z,77.54
2019-01-08T11:38:56.606Z,77.47
2019-01-08T11:41:28.928Z,77.27
2019-01-08T11:44:01.368Z,76.84
2019-01-08T11:46:37.548Z,76.87
2019-01-08T11:49:11.661Z,76.69
2019-01-08T11:51:43.938Z,76.22
2019-01-08T11:54:16.277Z,75.58
2019-01-08T11:56:47.270Z,75.33
2019-01-08T11:59:18.109Z,75.73
2019-01-08T12:01:57.131Z,75.68
2019-01-08T12:04:24.314Z,75.92
2019-01-08T12:06:56.445Z,75.92
2019-01-08T12:09:28.942Z,76.76
2019-01-08T12:12:01.273Z,76.76
2019-01-08T12:14:32.227Z,77.54
2019-01-08T12:17:03.109Z,77.98
2019-01-08T12:19:34.045Z,77.69
2019-01-08T12:22:05.040Z,78.55
2019-01-08T12:24:37.328Z,78.55
2019-01-08T12:27:09.280Z,79.44
2019-01-08T12:29:40.402Z,80.05
2019-01-08T12:32:12.623Z,79.97
2019-01-08T12:34:45.276Z,79.97
2019-01-08T12:37:16.041Z,80.54
2019-01-08T12:39:48.256Z,80.81
2019-01-08T12:42:19.283Z,80.81
2019-01-08T12:44:50.877Z,81.34
2019-01-08T12:47:23.249Z,81.32
2019-01-08T12:49:54.515Z,81.61
2019-01-08T12:52:26.894Z,81.55
2019-01-08T12:54:59.276Z,81.54
2019-01-08T12:57:30.061Z,81.56
2019-01-08T13:00:02.275Z,81.54
2019-01-08T13:02:34.289Z,81.30
2019-01-08T13:05:05.265Z,81.63
2019-01-08T13:07:36.053Z,81.81
2019-01-08T13:10:08.647Z,81.45
2019-01-08T13:12:40.925Z,82.01
2019-01-08T13:15:15.249Z,82.26
2019-01-08T13:17:46.018Z,82.47
2019-01-08T13:20:18.265Z,83.03
2019-01-08T13:22:48.998Z,82.39
2019-01-08T13:25:21.540Z,82.62
2019-01-08T13:27:53.939Z,82.64
2019-01-08T13:30:26.273Z,82.78
2019-01-08T13:32:57.092Z,82.62
2019-01-08T13:35:29.431Z,82.61
2019-01-08T13:38:01.621Z,82.92
2019-01-08T13:40:34.868Z,82.95
2019-01-08T13:43:07.322Z,82.60
2019-01-08T13:45:39.324Z,82.38
2019-01-08T13:48:11.775Z,82.23
2019-01-08T13:50:43.937Z,82.14
2019-01-08T13:53:16.263Z,82.12
2019-01-08T13:55:47.272Z,81.51
2019-01-08T13:58:18.585Z,81.46
2019-01-08T14:00:50.772Z,81.23
2019-01-08T14:03:23.283Z,81.16
2019-01-08T14:05:54.286Z,80.61
2019-01-08T14:08:27.454Z,80.83
2019-01-08T14:10:59.694Z,80.84
2019-01-08T14:13:31.942Z,80.84
2019-01-08T14:16:05.745Z,80.46
2019-01-08T14:18:38.275Z,80.38
2019-01-08T14:21:09.090Z,80.37
2019-01-08T14:23:41.267Z,80.04
2019-01-08T14:26:12.530Z,80.19
2019-01-08T14:28:44.938Z,80.09
2019-01-08T14:31:17.285Z,80.22
2019-01-08T14:33:49.943Z,79.90
2019-01-08T14:36:22.267Z,80.02
2019-01-08T14:38:53.397Z,80.31
2019-01-08T14:41:25.691Z,80.42
2019-01-08T14:44:00.097Z,80.31
2019-01-08T14:46:30.859Z,80.15
2019-01-08T14:49:02.949Z,79.99
2019-01-08T14:51:35.253Z,80.25
2019-01-08T14:56:21.390Z,79.96
2019-01-08T14:58:53.659Z,80.20
2019-01-08T15:01:25.949Z,80.25
2019-01-08T15:03:58.275Z,80.18
2019-01-08T15:06:30.596Z,80.13
2019-01-08T15:09:02.933Z,80.01
2019-01-08T15:11:37.279Z,79.94
2019-01-08T15:14:07.999Z,79.85
2019-01-08T15:16:41.943Z,80.20
2019-01-08T15:19:14.269Z,79.99
2019-01-08T15:21:45.283Z,79.89
2019-01-08T15:24:16.072Z,79.63
2019-01-08T15:26:48.059Z,79.53
2019-01-08T15:29:20.312Z,78.81
2019-01-08T15:31:51.088Z,77.72
2019-01-08T15:34:23.269Z,77.67
2019-01-08T15:36:54.908Z,77.62
2019-01-08T15:39:27.323Z,77.84
2019-01-08T15:41:59.791Z,78.23
2019-01-08T15:44:32.274Z,78.06
2019-01-08T15:47:03.094Z,76.57
2019-01-08T15:49:35.349Z,77.11
2019-01-08T15:52:07.613Z,77.71
2019-01-08T15:54:40.264Z,78.03
2019-01-08T15:57:11.275Z,78.32
2019-01-08T15:59:42.284Z,78.62
2019-01-08T16:02:13.078Z,79.03
2019-01-08T16:04:45.369Z,79.36
2019-01-08T16:07:17.667Z,79.46
2019-01-08T16:09:50.062Z,79.13
2019-01-08T16:12:22.267Z,78.82
2019-01-08T16:14:53.315Z,78.49
2019-01-08T16:17:25.395Z,78.24
2019-01-08T16:19:57.885Z,78.22
2019-01-08T16:22:30.257Z,78.22
2019-01-08T16:25:01.212Z,78.41
2019-01-08T16:27:32.102Z,77.75
2019-01-08T16:30:03.110Z,77.75
2019-01-08T16:32:36.116Z,78.07
2019-01-08T16:35:07.303Z,77.12
2019-01-08T16:37:39.726Z,76.87
2019-01-08T16:40:12.469Z,76.40
2019-01-08T16:42:44.976Z,75.40
2019-01-08T16:45:17.753Z,75.40
2019-01-08T16:47:49.885Z,75.21
2019-01-08T16:50:21.945Z,74.94
2019-01-08T16:52:54.283Z,75.08
2019-01-08T16:55:25.004Z,75.69
2019-01-08T16:57:56.938Z,75.60
2019-01-08T17:00:28.945Z,75.93
2019-01-08T17:03:01.079Z,76.40
2019-01-08T17:05:33.258Z,76.29
2019-01-08T17:08:03.872Z,76.37
2019-01-08T17:10:37.676Z,76.55
2019-01-08T17:13:09.952Z,76.28
2019-01-08T17:15:43.059Z,76.34
2019-01-08T17:18:15.277Z,76.28
2019-01-08T17:20:46.368Z,76.27
2019-01-08T17:23:18.282Z,76.34
2019-01-08T17:25:49.045Z,76.14
2019-01-08T17:28:21.274Z,76.02
2019-01-08T17:30:52.101Z,76.20
2019-01-08T17:33:24.260Z,75.94
2019-01-08T17:35:56.562Z,76.15
2019-01-08T17:38:28.865Z,76.17
2019-01-08T17:41:01.275Z,76.18
2019-01-08T17:43:33.601Z,76.63
2019-01-08T17:46:06.112Z,76.23
2019-01-08T17:48:37.021Z,75.23
2019-01-08T17:51:09.277Z,75.23
2019-01-08T17:53:39.804Z,75.50
2019-01-08T17:56:11.949Z,75.53
2019-01-08T17:58:46.707Z,75.38
2019-01-08T18:01:31.769Z,75.15
2019-01-08T18:04:03.982Z,75.15
2019-01-08T18:06:36.307Z,74.36
2019-01-08T18:09:09.333Z,74.36
2019-01-08T18:11:41.411Z,74.80
2019-01-08T18:14:13.651Z,74.65
2019-01-08T18:16:45.115Z,74.65
2019-01-08T18:19:15.823Z,74.80
2019-01-08T18:21:47.940Z,74.80
2019-01-08T18:24:19.937Z,75.28
2019-01-08T18:26:51.964Z,75.57
2019-01-08T18:29:24.274Z,76.01
2019-01-08T18:31:54.981Z,76.30
2019-01-08T18:34:27.436Z,75.78
2019-01-08T18:36:59.625Z,75.96
2019-01-08T18:39:31.878Z,75.96
2019-01-08T18:42:04.106Z,75.67
2019-01-08T18:44:34.672Z,76.02
2019-01-08T18:47:06.947Z,76.03
2019-01-08T18:49:39.309Z,76.05
2019-01-08T18:52:09.862Z,76.67
2019-01-08T18:54:41.939Z,76.67
2019-01-08T18:57:14.097Z,75.99
2019-01-08T18:59:46.281Z,75.60
2019-01-08T19:02:18.284Z,75.55
2019-01-08T19:04:49.002Z,75.84
2019-01-08T19:07:21.453Z,75.55
2019-01-08T19:10:03.533Z,75.88
2019-01-08T19:12:36.105Z,75.88
2019-01-08T19:15:08.284Z,75.82
2019-01-08T19:17:39.274Z,76.06
2019-01-08T19:20:10.042Z,76.31
2019-01-08T19:22:42.280Z,76.31
2019-01-08T19:25:18.312Z,76.51
2019-01-08T19:27:50.896Z,76.40
2019-01-08T19:30:23.355Z,76.73
2019-01-08T19:32:55.859Z,76.78
2019-01-08T19:35:31.467Z,76.81
2019-01-08T19:38:01.864Z,76.69
2019-01-08T19:40:33.933Z,76.79
2019-01-08T19:43:06.121Z,77.10
2019-01-08T19:45:36.877Z,77.07
2019-01-08T19:48:09.270Z,77.42
2019-01-08T19:50:39.977Z,77.59
2019-01-08T19:53:12.297Z,77.53
2019-01-08T19:55:44.289Z,77.10
2019-01-08T19:58:14.846Z,76.93
2019-01-08T20:00:46.940Z,76.88
2019-01-08T20:03:18.946Z,77.10
2019-01-08T20:05:51.268Z,77.10
2019-01-08T20:08:21.855Z,76.92
2019-01-08T20:10:54.107Z,77.11
2019-01-08T20:13:24.799Z,77.37
2019-01-08T20:15:56.861Z,77.65
2019-01-08T20:18:28.943Z,77.65
2019-01-08T20:21:01.290Z,77.79
2019-01-08T20:23:33.401Z,77.58
2019-01-08T20:26:05.339Z,77.29
2019-01-08T20:28:36.016Z,76.94
2019-01-08T20:31:08.078Z,76.76
2019-01-08T20:33:40.285Z,76.16
2019-01-08T20:36:11.277Z,76.34
2019-01-08T20:38:42.029Z,76.10
2019-01-08T20:41:14.141Z,76.11
2019-01-08T20:43:46.282Z,76.27
2019-01-08T20:46:16.723Z,76.65
2019-01-08T20:48:48.955Z,76.59
2019-01-08T20:51:21.100Z,76.88
2019-01-08T20:53:53.272Z,76.09
2019-01-08T20:56:24.684Z,76.79
2019-01-08T20:58:56.747Z,76.79
2019-01-08T21:01:28.904Z,76.74
2019-01-08T21:04:01.121Z,76.20
2019-01-08T21:06:33.115Z,76.56
2019-01-08T21:09:07.738Z,76.79
2019-01-08T21:11:41.361Z,76.77
2019-01-08T21:14:13.290Z,77.15
2019-01-08T21:16:47.749Z,77.15
2019-01-08T21:19:20.977Z,77.19
2019-01-08T21:22:00.598Z,77.12
2019-01-08T21:24:35.908Z,77.00
2019-01-08T21:27:12.358Z,77.25
2019-01-08T21:29:57.317Z,77.31
2019-01-08T21:32:41.573Z,77.32
2019-01-08T21:35:18.582Z,77.55
2019-01-08T21:37:56.314Z,77.66
2019-01-08T21:40:33.929Z,77.55
2019-01-08T21:43:09.965Z,77.59
2019-01-08T21:45:43.385Z,77.77
2019-01-08T21:48:15.669Z,77.64
2019-01-08T21:50:47.901Z,77.64
2019-01-08T21:53:20.008Z,77.85
2019-01-08T21:55:52.267Z,77.58
2019-01-08T21:58:23.011Z,77.70
2019-01-08T22:00:55.115Z,77.75
2019-01-08T22:03:27.267Z,77.45
2019-01-08T22:05:57.900Z,77.89
2019-01-08T22:08:29.957Z,77.90
2019-01-08T22:11:02.250Z,77.31
2019-01-08T22:13:33.004Z,76.65
2019-01-08T22:16:05.116Z,76.65
2019-01-08T22:18:35.910Z,76.86
2019-01-08T22:21:08.064Z,76.62
2019-01-08T22:23:43.154Z,76.42
2019-01-08T22:26:14.018Z,76.59
2019-01-08T22:28:46.123Z,76.63
2019-01-08T22:31:18.355Z,76.60
2019-01-08T22:33:50.619Z,76.26
2019-01-08T22:36:23.304Z,76.26
2019-01-08T22:38:55.308Z,76.46
2019-01-08T22:41:26.054Z,76.32
2019-01-08T22:43:58.330Z,76.59
2019-01-08T22:46:29.063Z,76.54
2019-01-08T22:49:01.282Z,76.36
2019-01-08T22:51:32.273Z,76.07
2019-01-08T22:54:04.259Z,76.29
2019-01-08T22:56:34.999Z,76.32
2019-01-08T22:59:07.274Z,76.29
2019-01-08T23:04:01.671Z,76.65
2019-01-08T23:06:34.313Z,76.87
2019-01-08T23:09:05.842Z,76.88
2019-01-08T23:11:38.101Z,76.55
2019-01-08T23:14:09.244Z,77.02
2019-01-08T23:16:40.102Z,76.87
2019-01-08T23:19:11.019Z,77.26
2019-01-08T23:21:43.307Z,77.42
2019-01-08T23:24:15.341Z,77.42
2019-01-08T23:26:47.358Z,77.23
2019-01-08T23:32:04.936Z,77.35
2019-01-08T23:34:37.267Z,77.35
2019-01-08T23:37:08.111Z,77.68
2019-01-08T23:39:40.270Z,77.83
2019-01-08T23:42:10.990Z,77.78
2019-01-08T23:44:43.278Z,78.21
2019-01-08T23:47:13.861Z,78.34
2019-01-08T23:49:46.068Z,78.32
2019-01-08T23:52:32.361Z,78.42
2019-01-08T23:55:06.949Z,78.63
2019-01-08T23:57:39.272Z,78.74
